sensor_id;sensor_type;location;lat;lon;timestamp;temperature;humidity
38237;DHT22;50101;49.438;11.098;2022-12-20T00:01:31;17.50;58.30
38237;DHT22;50101;49.438;11.098;2022-12-20T00:04:00;17.60;55.00
38237;DHT22;50101;49.438;11.098;2022-12-20T00:08:57;17.50;82.50
38237;DHT22;50101;49.438;11.098;2022-12-20T00:11:25;17.70;74.90
38237;DHT22;50101;49.438;11.098;2022-12-20T00:16:21;17.50;77.50
38237;DHT22;50101;49.438;11.098;2022-12-20T00:18:51;17.50;84.10
38237;DHT22;50101;49.438;11.098;2022-12-20T00:21:18;17.50;82.00
38237;DHT22;50101;49.438;11.098;2022-12-20T00:26:15;17.50;53.20
38237;DHT22;50101;49.438;11.098;2022-12-20T00:28:42;17.50;53.40
38237;DHT22;50101;49.438;11.098;2022-12-20T00:31:11;17.50;78.40
38237;DHT22;50101;49.438;11.098;2022-12-20T00:33:39;17.50;53.30
38237;DHT22;50101;49.438;11.098;2022-12-20T00:38:34;17.60;75.60
38237;DHT22;50101;49.438;11.098;2022-12-20T00:41:05;17.60;78.50
38237;DHT22;50101;49.438;11.098;2022-12-20T00:43:33;17.70;77.10
38237;DHT22;50101;49.438;11.098;2022-12-20T00:46:00;17.80;58.70
38237;DHT22;50101;49.438;11.098;2022-12-20T00:50:59;17.60;77.50
38237;DHT22;50101;49.438;11.098;2022-12-20T00:53:26;17.70;77.60
38237;DHT22;50101;49.438;11.098;2022-12-20T00:55:53;17.50;77.00
38237;DHT22;50101;49.438;11.098;2022-12-20T00:58:20;17.50;75.60
38237;DHT22;50101;49.438;11.098;2022-12-20T01:00:47;17.50;52.80
38237;DHT22;50101;49.438;11.098;2022-12-20T01:03:22;17.60;74.80
38237;DHT22;50101;49.438;11.098;2022-12-20T01:05:54;17.40;53.00
38237;DHT22;50101;49.438;11.098;2022-12-20T01:08:21;17.40;69.20
38237;DHT22;50101;49.438;11.098;2022-12-20T01:11:02;17.40;53.00
38237;DHT22;50101;49.438;11.098;2022-12-20T01:13:31;17.40;71.10
38237;DHT22;50101;49.438;11.098;2022-12-20T01:16:04;17.40;53.60
38237;DHT22;50101;49.438;11.098;2022-12-20T01:18:31;17.40;53.70
38237;DHT22;50101;49.438;11.098;2022-12-20T01:21:07;17.40;53.30
38237;DHT22;50101;49.438;11.098;2022-12-20T01:23:34;17.40;53.20
38237;DHT22;50101;49.438;11.098;2022-12-20T01:26:02;17.50;62.60
38237;DHT22;50101;49.438;11.098;2022-12-20T01:28:30;17.40;62.40
38237;DHT22;50101;49.438;11.098;2022-12-20T01:30:57;17.40;68.40
38237;DHT22;50101;49.438;11.098;2022-12-20T01:35:59;17.20;70.00
38237;DHT22;50101;49.438;11.098;2022-12-20T01:38:26;17.40;70.10
38237;DHT22;50101;49.438;11.098;2022-12-20T01:40:54;17.40;72.40
38237;DHT22;50101;49.438;11.098;2022-12-20T01:43:22;17.20;73.40
38237;DHT22;50101;49.438;11.098;2022-12-20T01:45:48;17.40;71.50
38237;DHT22;50101;49.438;11.098;2022-12-20T01:48:19;17.10;53.60
38237;DHT22;50101;49.438;11.098;2022-12-20T01:50:47;17.40;73.90
38237;DHT22;50101;49.438;11.098;2022-12-20T01:53:15;17.60;71.00
38237;DHT22;50101;49.438;11.098;2022-12-20T01:58:15;17.40;69.80
38237;DHT22;50101;49.438;11.098;2022-12-20T02:00:43;17.30;69.60
38237;DHT22;50101;49.438;11.098;2022-12-20T02:03:12;17.30;70.20
38237;DHT22;50101;49.438;11.098;2022-12-20T02:05:42;17.30;66.40
38237;DHT22;50101;49.438;11.098;2022-12-20T02:08:12;17.20;69.10
38237;DHT22;50101;49.438;11.098;2022-12-20T02:11:01;17.40;70.70
38237;DHT22;50101;49.438;11.098;2022-12-20T02:13:50;17.40;58.70
38237;DHT22;50101;49.438;11.098;2022-12-20T02:16:24;17.20;66.20
38237;DHT22;50101;49.438;11.098;2022-12-20T02:19:05;17.40;52.70
38237;DHT22;50101;49.438;11.098;2022-12-20T02:30:03;17.40;52.70
38237;DHT22;50101;49.438;11.098;2022-12-20T02:35:07;17.50;75.10
38237;DHT22;50101;49.438;11.098;2022-12-20T02:37:34;17.20;75.50
38237;DHT22;50101;49.438;11.098;2022-12-20T02:40:02;17.60;55.90
38237;DHT22;50101;49.438;11.098;2022-12-20T02:42:32;17.30;61.60
38237;DHT22;50101;49.438;11.098;2022-12-20T02:47:58;17.30;70.50
38237;DHT22;50101;49.438;11.098;2022-12-20T02:50:29;17.40;73.20
38237;DHT22;50101;49.438;11.098;2022-12-20T02:52:58;17.30;52.60
38237;DHT22;50101;49.438;11.098;2022-12-20T02:55:45;17.30;52.60
38237;DHT22;50101;49.438;11.098;2022-12-20T02:58:25;17.30;71.80
38237;DHT22;50101;49.438;11.098;2022-12-20T03:00:55;17.30;52.70
38237;DHT22;50101;49.438;11.098;2022-12-20T03:05:54;17.00;53.80
38237;DHT22;50101;49.438;11.098;2022-12-20T03:10:51;17.30;52.50
38237;DHT22;50101;49.438;11.098;2022-12-20T03:15:45;17.30;59.10
38237;DHT22;50101;49.438;11.098;2022-12-20T03:18:12;17.10;73.00
38237;DHT22;50101;49.438;11.098;2022-12-20T03:20:38;17.40;74.00
38237;DHT22;50101;49.438;11.098;2022-12-20T03:25:32;17.30;73.90
38237;DHT22;50101;49.438;11.098;2022-12-20T03:27:59;17.00;75.40
38237;DHT22;50101;49.438;11.098;2022-12-20T03:30:26;17.30;52.60
38237;DHT22;50101;49.438;11.098;2022-12-20T03:32:53;17.30;53.20
38237;DHT22;50101;49.438;11.098;2022-12-20T03:35:20;17.20;53.30
38237;DHT22;50101;49.438;11.098;2022-12-20T03:37:46;17.20;53.40
38237;DHT22;50101;49.438;11.098;2022-12-20T03:40:13;17.20;53.00
38237;DHT22;50101;49.438;11.098;2022-12-20T03:42:41;17.20;53.50
38237;DHT22;50101;49.438;11.098;2022-12-20T03:45:08;17.20;53.50
38237;DHT22;50101;49.438;11.098;2022-12-20T03:47:35;17.20;53.60
38237;DHT22;50101;49.438;11.098;2022-12-20T03:50:02;17.20;53.60
38237;DHT22;50101;49.438;11.098;2022-12-20T03:52:29;17.20;53.60
38237;DHT22;50101;49.438;11.098;2022-12-20T03:54:56;17.20;53.60
38237;DHT22;50101;49.438;11.098;2022-12-20T03:57:23;17.10;53.40
38237;DHT22;50101;49.438;11.098;2022-12-20T03:59:49;17.20;53.60
38237;DHT22;50101;49.438;11.098;2022-12-20T04:02:16;17.20;53.10
38237;DHT22;50101;49.438;11.098;2022-12-20T04:04:43;17.20;53.60
38237;DHT22;50101;49.438;11.098;2022-12-20T04:07:10;17.20;53.60
38237;DHT22;50101;49.438;11.098;2022-12-20T04:09:36;17.10;53.50
38237;DHT22;50101;49.438;11.098;2022-12-20T04:12:03;17.10;53.50
38237;DHT22;50101;49.438;11.098;2022-12-20T04:14:30;17.10;54.20
38237;DHT22;50101;49.438;11.098;2022-12-20T04:16:56;17.10;53.50
38237;DHT22;50101;49.438;11.098;2022-12-20T04:19:23;17.10;53.60
38237;DHT22;50101;49.438;11.098;2022-12-20T04:21:50;17.10;53.50
38237;DHT22;50101;49.438;11.098;2022-12-20T04:24:16;17.10;53.60
38237;DHT22;50101;49.438;11.098;2022-12-20T04:26:43;17.10;53.80
38237;DHT22;50101;49.438;11.098;2022-12-20T04:29:10;17.10;53.50
38237;DHT22;50101;49.438;11.098;2022-12-20T04:31:36;17.10;53.60
38237;DHT22;50101;49.438;11.098;2022-12-20T04:34:03;17.10;53.70
38237;DHT22;50101;49.438;11.098;2022-12-20T04:36:30;17.10;53.60
38237;DHT22;50101;49.438;11.098;2022-12-20T04:38:56;17.10;53.60
38237;DHT22;50101;49.438;11.098;2022-12-20T04:41:23;17.10;53.70
38237;DHT22;50101;49.438;11.098;2022-12-20T04:43:51;17.10;53.80
38237;DHT22;50101;49.438;11.098;2022-12-20T04:46:19;17.10;53.80
38237;DHT22;50101;49.438;11.098;2022-12-20T04:48:46;17.10;53.80
38237;DHT22;50101;49.438;11.098;2022-12-20T04:51:24;17.10;53.80
38237;DHT22;50101;49.438;11.098;2022-12-20T04:53:51;17.10;53.80
38237;DHT22;50101;49.438;11.098;2022-12-20T04:56:18;17.10;53.80
38237;DHT22;50101;49.438;11.098;2022-12-20T04:58:47;17.10;53.80
38237;DHT22;50101;49.438;11.098;2022-12-20T05:01:14;17.10;53.80
38237;DHT22;50101;49.438;11.098;2022-12-20T05:03:42;17.10;53.80
38237;DHT22;50101;49.438;11.098;2022-12-20T05:06:09;17.10;53.80
38237;DHT22;50101;49.438;11.098;2022-12-20T05:08:36;17.10;53.80
38237;DHT22;50101;49.438;11.098;2022-12-20T05:11:03;17.10;53.80
38237;DHT22;50101;49.438;11.098;2022-12-20T05:13:31;17.10;53.90
38237;DHT22;50101;49.438;11.098;2022-12-20T05:15:59;16.30;52.70
38237;DHT22;50101;49.438;11.098;2022-12-20T05:18:26;16.70;56.30
38237;DHT22;50101;49.438;11.098;2022-12-20T05:20:58;17.50;73.00
38237;DHT22;50101;49.438;11.098;2022-12-20T05:23:43;17.30;71.80
38237;DHT22;50101;49.438;11.098;2022-12-20T05:26:31;17.40;53.00
38237;DHT22;50101;49.438;11.098;2022-12-20T05:33:53;17.20;76.00
38237;DHT22;50101;49.438;11.098;2022-12-20T05:38:47;17.40;71.40
38237;DHT22;50101;49.438;11.098;2022-12-20T05:41:13;17.30;71.70
38237;DHT22;50101;49.438;11.098;2022-12-20T05:43:41;17.30;72.40
38237;DHT22;50101;49.438;11.098;2022-12-20T05:46:07;17.40;73.00
38237;DHT22;50101;49.438;11.098;2022-12-20T05:51:02;17.50;71.70
38237;DHT22;50101;49.438;11.098;2022-12-20T05:55:56;17.60;69.40
38237;DHT22;50101;49.438;11.098;2022-12-20T06:00:50;17.40;56.10
38237;DHT22;50101;49.438;11.098;2022-12-20T06:03:17;17.50;71.50
38237;DHT22;50101;49.438;11.098;2022-12-20T06:05:44;17.80;54.10
38237;DHT22;50101;49.438;11.098;2022-12-20T06:08:12;17.60;71.40
38237;DHT22;50101;49.438;11.098;2022-12-20T06:10:40;17.90;60.80
38237;DHT22;50101;49.438;11.098;2022-12-20T06:13:07;17.60;61.10
38237;DHT22;50101;49.438;11.098;2022-12-20T06:15:35;17.80;54.00
38237;DHT22;50101;49.438;11.098;2022-12-20T06:18:02;17.70;73.70
38237;DHT22;50101;49.438;11.098;2022-12-20T06:22:56;17.80;73.40
38237;DHT22;50101;49.438;11.098;2022-12-20T06:25:23;17.70;72.80
38237;DHT22;50101;49.438;11.098;2022-12-20T06:30:17;17.40;73.10
38237;DHT22;50101;49.438;11.098;2022-12-20T06:32:44;17.80;76.60
38237;DHT22;50101;49.438;11.098;2022-12-20T06:35:11;17.70;61.80
38237;DHT22;50101;49.438;11.098;2022-12-20T06:37:38;17.90;73.60
38237;DHT22;50101;49.438;11.098;2022-12-20T06:42:36;17.70;74.70
38237;DHT22;50101;49.438;11.098;2022-12-20T06:45:04;17.70;74.70
38237;DHT22;50101;49.438;11.098;2022-12-20T06:47:31;17.80;72.30
38237;DHT22;50101;49.438;11.098;2022-12-20T06:54:51;17.80;73.00
38237;DHT22;50101;49.438;11.098;2022-12-20T06:59:45;17.80;54.30
38237;DHT22;50101;49.438;11.098;2022-12-20T07:02:12;17.90;77.20
38237;DHT22;50101;49.438;11.098;2022-12-20T07:07:07;18.00;71.40
38237;DHT22;50101;49.438;11.098;2022-12-20T07:09:33;17.90;72.20
38237;DHT22;50101;49.438;11.098;2022-12-20T07:12:00;17.90;59.40
38237;DHT22;50101;49.438;11.098;2022-12-20T07:14:27;17.80;75.00
38237;DHT22;50101;49.438;11.098;2022-12-20T07:16:54;17.90;74.80
38237;DHT22;50101;49.438;11.098;2022-12-20T07:21:48;17.90;73.00
38237;DHT22;50101;49.438;11.098;2022-12-20T07:24:14;17.90;75.40
38237;DHT22;50101;49.438;11.098;2022-12-20T07:26:43;17.90;53.50
38237;DHT22;50101;49.438;11.098;2022-12-20T07:29:12;17.80;76.50
38237;DHT22;50101;49.438;11.098;2022-12-20T07:31:41;18.00;76.60
38237;DHT22;50101;49.438;11.098;2022-12-20T07:34:09;18.80;57.90
38237;DHT22;50101;49.438;11.098;2022-12-20T07:39:03;17.90;59.60
38237;DHT22;50101;49.438;11.098;2022-12-20T07:43:58;17.90;55.00
38237;DHT22;50101;49.438;11.098;2022-12-20T07:46:24;18.10;72.30
38237;DHT22;50101;49.438;11.098;2022-12-20T07:51:28;18.00;55.00
38237;DHT22;50101;49.438;11.098;2022-12-20T07:54:05;17.90;55.00
38237;DHT22;50101;49.438;11.098;2022-12-20T07:56:38;18.00;55.00
38237;DHT22;50101;49.438;11.098;2022-12-20T07:59:09;18.00;55.10
38237;DHT22;50101;49.438;11.098;2022-12-20T08:04:10;18.00;54.80
38237;DHT22;50101;49.438;11.098;2022-12-20T08:06:39;18.00;79.50
38237;DHT22;50101;49.438;11.098;2022-12-20T08:09:08;18.10;55.00
38237;DHT22;50101;49.438;11.098;2022-12-20T08:11:36;18.20;64.40
38237;DHT22;50101;49.438;11.098;2022-12-20T08:14:04;18.30;83.00
38237;DHT22;50101;49.438;11.098;2022-12-20T08:18:59;18.20;83.50
38237;DHT22;50101;49.438;11.098;2022-12-20T08:21:26;18.10;82.00
38237;DHT22;50101;49.438;11.098;2022-12-20T08:26:20;18.00;80.50
38237;DHT22;50101;49.438;11.098;2022-12-20T08:33:41;18.20;81.30
38237;DHT22;50101;49.438;11.098;2022-12-20T08:36:09;18.10;55.30
38237;DHT22;50101;49.438;11.098;2022-12-20T08:38:37;18.30;55.50
38237;DHT22;50101;49.438;11.098;2022-12-20T08:41:05;18.10;59.80
38237;DHT22;50101;49.438;11.098;2022-12-20T08:43:33;18.00;76.30
38237;DHT22;50101;49.438;11.098;2022-12-20T08:46:00;18.10;55.70
38237;DHT22;50101;49.438;11.098;2022-12-20T08:48:27;18.20;56.40
38237;DHT22;50101;49.438;11.098;2022-12-20T08:51:00;18.00;56.20
38237;DHT22;50101;49.438;11.098;2022-12-20T08:53:28;18.00;55.50
38237;DHT22;50101;49.438;11.098;2022-12-20T08:56:13;18.10;55.90
38237;DHT22;50101;49.438;11.098;2022-12-20T08:58:41;18.00;55.60
38237;DHT22;50101;49.438;11.098;2022-12-20T09:01:11;18.10;55.60
38237;DHT22;50101;49.438;11.098;2022-12-20T09:03:39;18.10;56.10
38237;DHT22;50101;49.438;11.098;2022-12-20T09:06:12;18.10;56.30
38237;DHT22;50101;49.438;11.098;2022-12-20T09:08:39;18.10;56.40
38237;DHT22;50101;49.438;11.098;2022-12-20T09:11:10;18.10;56.60
38237;DHT22;50101;49.438;11.098;2022-12-20T09:13:41;18.10;56.70
38237;DHT22;50101;49.438;11.098;2022-12-20T09:16:12;18.10;56.80
38237;DHT22;50101;49.438;11.098;2022-12-20T09:18:39;18.60;57.30
38237;DHT22;50101;49.438;11.098;2022-12-20T09:21:06;18.10;56.90
38237;DHT22;50101;49.438;11.098;2022-12-20T09:23:34;18.10;56.90
38237;DHT22;50101;49.438;11.098;2022-12-20T09:26:03;18.10;56.80
38237;DHT22;50101;49.438;11.098;2022-12-20T09:28:31;18.10;56.40
38237;DHT22;50101;49.438;11.098;2022-12-20T09:30:58;18.10;56.80
38237;DHT22;50101;49.438;11.098;2022-12-20T09:33:26;18.10;56.90
38237;DHT22;50101;49.438;11.098;2022-12-20T09:38:21;18.10;56.40
38237;DHT22;50101;49.438;11.098;2022-12-20T09:40:50;18.10;56.50
38237;DHT22;50101;49.438;11.098;2022-12-20T09:43:17;18.10;56.40
38237;DHT22;50101;49.438;11.098;2022-12-20T09:45:46;18.10;56.50
38237;DHT22;50101;49.438;11.098;2022-12-20T09:48:20;18.10;55.80
38237;DHT22;50101;49.438;11.098;2022-12-20T09:53:40;18.10;56.50
38237;DHT22;50101;49.438;11.098;2022-12-20T09:56:13;18.10;56.00
38237;DHT22;50101;49.438;11.098;2022-12-20T09:59:04;18.20;56.70
38237;DHT22;50101;49.438;11.098;2022-12-20T10:01:33;18.10;56.70
38237;DHT22;50101;49.438;11.098;2022-12-20T10:04:32;18.10;56.80
38237;DHT22;50101;49.438;11.098;2022-12-20T10:07:27;18.20;56.80
38237;DHT22;50101;49.438;11.098;2022-12-20T10:16:04;18.10;57.00
38237;DHT22;50101;49.438;11.098;2022-12-20T10:21:51;18.10;56.80
38237;DHT22;50101;49.438;11.098;2022-12-20T10:24:24;18.20;56.20
38237;DHT22;50101;49.438;11.098;2022-12-20T10:26:51;18.10;55.90
38237;DHT22;50101;49.438;11.098;2022-12-20T10:29:19;18.20;56.70
38237;DHT22;50101;49.438;11.098;2022-12-20T10:31:54;18.20;57.00
38237;DHT22;50101;49.438;11.098;2022-12-20T10:34:24;18.20;57.30
38237;DHT22;50101;49.438;11.098;2022-12-20T10:37:13;18.10;57.20
38237;DHT22;50101;49.438;11.098;2022-12-20T10:39:43;18.20;57.20
38237;DHT22;50101;49.438;11.098;2022-12-20T10:42:39;18.20;56.70
38237;DHT22;50101;49.438;11.098;2022-12-20T10:47:50;18.20;56.70
38237;DHT22;50101;49.438;11.098;2022-12-20T10:50:19;18.20;56.30
38237;DHT22;50101;49.438;11.098;2022-12-20T10:55:38;18.20;57.30
38237;DHT22;50101;49.438;11.098;2022-12-20T10:58:13;18.20;56.90
38237;DHT22;50101;49.438;11.098;2022-12-20T11:00:40;18.20;56.80
38237;DHT22;50101;49.438;11.098;2022-12-20T11:03:19;18.20;56.80
38237;DHT22;50101;49.438;11.098;2022-12-20T11:05:57;18.20;56.80
38237;DHT22;50101;49.438;11.098;2022-12-20T11:08:26;18.20;57.00
38237;DHT22;50101;49.438;11.098;2022-12-20T11:13:43;18.30;56.90
38237;DHT22;50101;49.438;11.098;2022-12-20T11:16:33;18.30;56.90
38237;DHT22;50101;49.438;11.098;2022-12-20T11:19:21;18.30;56.90
38237;DHT22;50101;49.438;11.098;2022-12-20T11:22:10;18.30;56.90
38237;DHT22;50101;49.438;11.098;2022-12-20T11:24:48;18.30;56.90
38237;DHT22;50101;49.438;11.098;2022-12-20T11:27:47;18.30;56.90
38237;DHT22;50101;49.438;11.098;2022-12-20T11:30:29;18.30;56.40
38237;DHT22;50101;49.438;11.098;2022-12-20T11:33:11;18.40;57.10
38237;DHT22;50101;49.438;11.098;2022-12-20T11:36:02;18.30;56.90
38237;DHT22;50101;49.438;11.098;2022-12-20T11:38:41;18.30;57.00
38237;DHT22;50101;49.438;11.098;2022-12-20T11:41:18;18.40;57.00
38237;DHT22;50101;49.438;11.098;2022-12-20T11:43:59;18.40;56.30
38237;DHT22;50101;49.438;11.098;2022-12-20T11:47:32;18.40;56.40
38237;DHT22;50101;49.438;11.098;2022-12-20T11:50:08;18.30;56.30
38237;DHT22;50101;49.438;11.098;2022-12-20T11:52:45;18.20;56.10
38237;DHT22;50101;49.438;11.098;2022-12-20T11:55:34;18.20;56.10
38237;DHT22;50101;49.438;11.098;2022-12-20T11:58:14;18.20;56.10
38237;DHT22;50101;49.438;11.098;2022-12-20T12:00:56;18.10;55.50
38237;DHT22;50101;49.438;11.098;2022-12-20T12:03:32;18.10;56.10
38237;DHT22;50101;49.438;11.098;2022-12-20T12:06:06;18.10;56.10
38237;DHT22;50101;49.438;11.098;2022-12-20T12:08:40;18.10;56.10
38237;DHT22;50101;49.438;11.098;2022-12-20T12:14:01;18.10;56.10
38237;DHT22;50101;49.438;11.098;2022-12-20T12:16:34;18.10;56.10
38237;DHT22;50101;49.438;11.098;2022-12-20T12:19:01;18.10;56.10
38237;DHT22;50101;49.438;11.098;2022-12-20T12:21:36;18.00;55.50
38237;DHT22;50101;49.438;11.098;2022-12-20T12:26:37;18.00;56.10
38237;DHT22;50101;49.438;11.098;2022-12-20T12:29:17;18.00;56.10
38237;DHT22;50101;49.438;11.098;2022-12-20T12:45:17;18.00;56.10
38237;DHT22;50101;49.438;11.098;2022-12-20T12:47:54;18.00;56.20
38237;DHT22;50101;49.438;11.098;2022-12-20T12:50:26;17.90;56.10
38237;DHT22;50101;49.438;11.098;2022-12-20T12:52:56;18.00;56.20
38237;DHT22;50101;49.438;11.098;2022-12-20T13:00:54;18.00;56.30
38237;DHT22;50101;49.438;11.098;2022-12-20T13:03:45;17.90;56.20
38237;DHT22;50101;49.438;11.098;2022-12-20T13:11:30;17.90;56.30
38237;DHT22;50101;49.438;11.098;2022-12-20T13:16:44;17.90;56.40
38237;DHT22;50101;49.438;11.098;2022-12-20T13:19:36;17.90;56.40
38237;DHT22;50101;49.438;11.098;2022-12-20T13:22:17;17.90;56.40
38237;DHT22;50101;49.438;11.098;2022-12-20T13:27:30;17.90;56.40
38237;DHT22;50101;49.438;11.098;2022-12-20T13:40:39;17.90;56.50
38237;DHT22;50101;49.438;11.098;2022-12-20T13:45:50;17.90;56.50
38237;DHT22;50101;49.438;11.098;2022-12-20T13:48:24;17.80;56.40
38237;DHT22;50101;49.438;11.098;2022-12-20T13:50:53;17.80;56.50
38237;DHT22;50101;49.438;11.098;2022-12-20T13:53:25;17.90;56.50
38237;DHT22;50101;49.438;11.098;2022-12-20T13:55:53;17.90;56.60
38237;DHT22;50101;49.438;11.098;2022-12-20T13:58:27;17.90;56.60
38237;DHT22;50101;49.438;11.098;2022-12-20T14:01:12;17.90;56.70
38237;DHT22;50101;49.438;11.098;2022-12-20T14:03:40;17.80;56.60
38237;DHT22;50101;49.438;11.098;2022-12-20T14:06:09;17.90;56.70
38237;DHT22;50101;49.438;11.098;2022-12-20T14:08:43;17.80;56.60
38237;DHT22;50101;49.438;11.098;2022-12-20T14:11:15;17.80;56.60
38237;DHT22;50101;49.438;11.098;2022-12-20T14:13:51;17.80;56.60
38237;DHT22;50101;49.438;11.098;2022-12-20T14:16:20;17.80;56.60
38237;DHT22;50101;49.438;11.098;2022-12-20T14:18:48;17.90;56.70
38237;DHT22;50101;49.438;11.098;2022-12-20T14:21:15;17.90;56.70
38237;DHT22;50101;49.438;11.098;2022-12-20T14:23:46;17.80;56.70
38237;DHT22;50101;49.438;11.098;2022-12-20T14:26:21;17.80;56.20
38237;DHT22;50101;49.438;11.098;2022-12-20T14:28:59;17.80;56.70
38237;DHT22;50101;49.438;11.098;2022-12-20T14:31:28;17.90;56.80
38237;DHT22;50101;49.438;11.098;2022-12-20T14:34:02;17.90;56.80
38237;DHT22;50101;49.438;11.098;2022-12-20T14:36:30;17.80;56.70
38237;DHT22;50101;49.438;11.098;2022-12-20T14:38:57;17.80;56.70
38237;DHT22;50101;49.438;11.098;2022-12-20T14:44:15;17.80;56.70
38237;DHT22;50101;49.438;11.098;2022-12-20T14:46:50;17.80;56.80
38237;DHT22;50101;49.438;11.098;2022-12-20T14:49:29;17.80;56.90
38237;DHT22;50101;49.438;11.098;2022-12-20T14:52:16;17.80;57.40
38237;DHT22;50101;49.438;11.098;2022-12-20T15:00:20;17.80;56.80
38237;DHT22;50101;49.438;11.098;2022-12-20T15:08:32;17.80;56.90
38237;DHT22;50101;49.438;11.098;2022-12-20T15:13:38;17.80;56.90
38237;DHT22;50101;49.438;11.098;2022-12-20T15:16:16;18.30;57.30
38237;DHT22;50101;49.438;11.098;2022-12-20T15:18:45;17.80;56.90
38237;DHT22;50101;49.438;11.098;2022-12-20T15:21:17;17.80;56.90
38237;DHT22;50101;49.438;11.098;2022-12-20T15:23:50;17.80;56.90
38237;DHT22;50101;49.438;11.098;2022-12-20T15:26:21;17.80;56.90
38237;DHT22;50101;49.438;11.098;2022-12-20T15:28:48;17.80;56.90
38237;DHT22;50101;49.438;11.098;2022-12-20T15:31:19;17.80;56.90
38237;DHT22;50101;49.438;11.098;2022-12-20T15:33:48;17.80;57.00
38237;DHT22;50101;49.438;11.098;2022-12-20T15:36:25;17.80;56.90
38237;DHT22;50101;49.438;11.098;2022-12-20T15:38:53;17.80;57.00
38237;DHT22;50101;49.438;11.098;2022-12-20T15:41:40;17.80;56.50
38237;DHT22;50101;49.438;11.098;2022-12-20T15:44:20;17.80;57.00
38237;DHT22;50101;49.438;11.098;2022-12-20T15:46:47;17.80;56.90
38237;DHT22;50101;49.438;11.098;2022-12-20T15:49:16;17.80;57.00
38237;DHT22;50101;49.438;11.098;2022-12-20T15:51:43;17.80;57.60
38237;DHT22;50101;49.438;11.098;2022-12-20T15:54:24;17.80;57.00
38237;DHT22;50101;49.438;11.098;2022-12-20T15:56:53;17.80;57.00
38237;DHT22;50101;49.438;11.098;2022-12-20T15:59:20;17.80;57.00
38237;DHT22;50101;49.438;11.098;2022-12-20T16:02:24;17.80;57.00
38237;DHT22;50101;49.438;11.098;2022-12-20T16:04:52;17.80;57.10
38237;DHT22;50101;49.438;11.098;2022-12-20T16:07:19;17.80;57.10
38237;DHT22;50101;49.438;11.098;2022-12-20T16:09:46;17.80;57.10
38237;DHT22;50101;49.438;11.098;2022-12-20T16:12:24;17.80;57.10
38237;DHT22;50101;49.438;11.098;2022-12-20T16:14:51;17.80;57.10
38237;DHT22;50101;49.438;11.098;2022-12-20T16:17:18;17.80;57.10
38237;DHT22;50101;49.438;11.098;2022-12-20T16:19:44;17.80;57.10
38237;DHT22;50101;49.438;11.098;2022-12-20T16:22:21;17.80;57.10
38237;DHT22;50101;49.438;11.098;2022-12-20T16:24:48;17.80;57.10
38237;DHT22;50101;49.438;11.098;2022-12-20T16:27:15;17.80;57.10
38237;DHT22;50101;49.438;11.098;2022-12-20T16:29:42;17.80;57.10
38237;DHT22;50101;49.438;11.098;2022-12-20T16:32:17;17.80;57.20
38237;DHT22;50101;49.438;11.098;2022-12-20T16:34:44;17.80;57.10
38237;DHT22;50101;49.438;11.098;2022-12-20T16:37:11;17.80;57.10
38237;DHT22;50101;49.438;11.098;2022-12-20T16:39:39;17.80;56.60
38237;DHT22;50101;49.438;11.098;2022-12-20T16:42:14;17.80;57.10
38237;DHT22;50101;49.438;11.098;2022-12-20T16:44:41;17.80;57.10
38237;DHT22;50101;49.438;11.098;2022-12-20T16:47:10;17.80;57.20
38237;DHT22;50101;49.438;11.098;2022-12-20T16:49:37;17.80;57.10
38237;DHT22;50101;49.438;11.098;2022-12-20T16:52:04;17.80;57.10
38237;DHT22;50101;49.438;11.098;2022-12-20T16:54:32;17.80;57.10
38237;DHT22;50101;49.438;11.098;2022-12-20T16:56:58;17.70;57.10
38237;DHT22;50101;49.438;11.098;2022-12-20T16:59:25;17.80;57.10
38237;DHT22;50101;49.438;11.098;2022-12-20T17:01:53;17.80;57.10
38237;DHT22;50101;49.438;11.098;2022-12-20T17:04:21;17.70;57.00
38237;DHT22;50101;49.438;11.098;2022-12-20T17:06:49;17.70;57.00
38237;DHT22;50101;49.438;11.098;2022-12-20T17:09:17;17.80;57.10
38237;DHT22;50101;49.438;11.098;2022-12-20T17:12:01;17.70;57.00
38237;DHT22;50101;49.438;11.098;2022-12-20T17:14:29;17.70;57.10
38237;DHT22;50101;49.438;11.098;2022-12-20T17:16:56;17.80;57.10
38237;DHT22;50101;49.438;11.098;2022-12-20T17:19:23;17.70;57.00
38237;DHT22;50101;49.438;11.098;2022-12-20T17:21:49;17.70;56.50
38237;DHT22;50101;49.438;11.098;2022-12-20T17:24:34;17.70;57.00
38237;DHT22;50101;49.438;11.098;2022-12-20T17:27:01;17.80;57.10
38237;DHT22;50101;49.438;11.098;2022-12-20T17:29:27;17.80;57.10
38237;DHT22;50101;49.438;11.098;2022-12-20T17:31:54;17.80;57.10
38237;DHT22;50101;49.438;11.098;2022-12-20T17:34:23;17.80;56.90
38237;DHT22;50101;49.438;11.098;2022-12-20T17:36:52;17.80;56.90
38237;DHT22;50101;49.438;11.098;2022-12-20T17:39:20;17.70;56.70
38237;DHT22;50101;49.438;11.098;2022-12-20T17:41:47;17.70;56.90
38237;DHT22;50101;49.438;11.098;2022-12-20T17:44:27;17.70;56.90
38237;DHT22;50101;49.438;11.098;2022-12-20T17:46:56;17.80;57.00
38237;DHT22;50101;49.438;11.098;2022-12-20T17:49:23;17.80;57.00
38237;DHT22;50101;49.438;11.098;2022-12-20T17:51:50;17.90;56.60
38237;DHT22;50101;49.438;11.098;2022-12-20T17:54:20;17.90;57.10
38237;DHT22;50101;49.438;11.098;2022-12-20T17:56:47;17.90;57.00
38237;DHT22;50101;49.438;11.098;2022-12-20T17:59:15;18.00;57.30
38237;DHT22;50101;49.438;11.098;2022-12-20T18:01:43;18.00;57.20
38237;DHT22;50101;49.438;11.098;2022-12-20T18:04:12;18.00;57.20
38237;DHT22;50101;49.438;11.098;2022-12-20T18:06:42;18.00;57.30
38237;DHT22;50101;49.438;11.098;2022-12-20T18:09:13;18.00;57.30
38237;DHT22;50101;49.438;11.098;2022-12-20T18:11:41;18.00;57.30
38237;DHT22;50101;49.438;11.098;2022-12-20T18:14:08;18.00;57.30
38237;DHT22;50101;49.438;11.098;2022-12-20T18:16:34;18.00;57.30
38237;DHT22;50101;49.438;11.098;2022-12-20T18:19:02;18.00;57.30
38237;DHT22;50101;49.438;11.098;2022-12-20T18:21:28;19.00;58.10
38237;DHT22;50101;49.438;11.098;2022-12-20T18:23:55;18.10;57.40
38237;DHT22;50101;49.438;11.098;2022-12-20T18:26:25;18.10;57.40
38237;DHT22;50101;49.438;11.098;2022-12-20T18:28:54;18.10;57.40
38237;DHT22;50101;49.438;11.098;2022-12-20T18:31:23;18.10;57.40
38237;DHT22;50101;49.438;11.098;2022-12-20T18:33:50;18.10;57.40
38237;DHT22;50101;49.438;11.098;2022-12-20T18:36:29;18.10;57.40
38237;DHT22;50101;49.438;11.098;2022-12-20T18:38:57;18.10;57.40
38237;DHT22;50101;49.438;11.098;2022-12-20T18:41:26;18.10;57.40